sensor_id;sensor_type;location;lat;lon;timestamp;P1;durP1;ratioP1;P2;durP2;ratioP2
3447;SDS011;1738;49.500;17.736;2022-10-31T00:00:16;51.37;;;15.80;;
3447;SDS011;1738;49.500;17.736;2022-10-31T00:02:42;80.03;;;16.33;;
3447;SDS011;1738;49.500;17.736;2022-10-31T00:05:08;47.83;;;13.80;;
3447;SDS011;1738;49.500;17.736;2022-10-31T00:07:34;33.60;;;12.40;;
3447;SDS011;1738;49.500;17.736;2022-10-31T00:10:00;50.75;;;13.73;;
3447;SDS011;1738;49.500;17.736;2022-10-31T00:12:26;58.70;;;14.77;;
3447;SDS011;1738;49.500;17.736;2022-10-31T00:14:51;46.77;;;15.37;;
3447;SDS011;1738;49.500;17.736;2022-10-31T00:17:17;28.60;;;12.43;;
3447;SDS011;1738;49.500;17.736;2022-10-31T00:19:43;56.47;;;14.50;;
3447;SDS011;1738;49.500;17.736;2022-10-31T00:22:09;62.73;;;16.10;;
3447;SDS011;1738;49.500;17.736;2022-10-31T00:24:35;70.47;;;16.57;;
3447;SDS011;1738;49.500;17.736;2022-10-31T00:27:01;47.10;;;13.03;;
3447;SDS011;1738;49.500;17.736;2022-10-31T00:29:26;56.53;;;15.33;;
3447;SDS011;1738;49.500;17.736;2022-10-31T00:31:52;48.13;;;15.70;;
3447;SDS011;1738;49.500;17.736;2022-10-31T00:34:18;56.17;;;13.43;;
3447;SDS011;1738;49.500;17.736;2022-10-31T00:36:44;82.87;;;15.57;;
3447;SDS011;1738;49.500;17.736;2022-10-31T00:39:10;117.90;;;16.67;;
3447;SDS011;1738;49.500;17.736;2022-10-31T00:41:36;121.00;;;14.70;;
3447;SDS011;1738;49.500;17.736;2022-10-31T00:44:02;68.80;;;15.70;;
3447;SDS011;1738;49.500;17.736;2022-10-31T00:46:28;92.20;;;13.53;;
3447;SDS011;1738;49.500;17.736;2022-10-31T00:48:54;74.60;;;14.40;;
3447;SDS011;1738;49.500;17.736;2022-10-31T00:51:20;88.40;;;13.17;;
3447;SDS011;1738;49.500;17.736;2022-10-31T00:53:45;87.27;;;14.53;;
3447;SDS011;1738;49.500;17.736;2022-10-31T00:56:11;77.10;;;13.90;;
3447;SDS011;1738;49.500;17.736;2022-10-31T00:58:37;92.53;;;14.20;;
3447;SDS011;1738;49.500;17.736;2022-10-31T01:01:03;129.90;;;15.33;;
3447;SDS011;1738;49.500;17.736;2022-10-31T01:03:30;60.60;;;12.97;;
3447;SDS011;1738;49.500;17.736;2022-10-31T01:05:56;52.00;;;12.00;;
3447;SDS011;1738;49.500;17.736;2022-10-31T01:08:21;43.00;;;12.55;;
3447;SDS011;1738;49.500;17.736;2022-10-31T01:10:57;49.97;;;11.50;;
3447;SDS011;1738;49.500;17.736;2022-10-31T01:13:13;94.43;;;15.30;;
3447;SDS011;1738;49.500;17.736;2022-10-31T01:15:39;95.23;;;15.33;;
3447;SDS011;1738;49.500;17.736;2022-10-31T01:18:05;64.23;;;11.90;;
3447;SDS011;1738;49.500;17.736;2022-10-31T01:20:31;75.63;;;13.60;;
3447;SDS011;1738;49.500;17.736;2022-10-31T01:22:56;81.20;;;13.50;;
3447;SDS011;1738;49.500;17.736;2022-10-31T01:25:22;58.13;;;12.20;;
3447;SDS011;1738;49.500;17.736;2022-10-31T01:27:48;60.53;;;12.20;;
3447;SDS011;1738;49.500;17.736;2022-10-31T01:30:14;68.00;;;13.23;;
3447;SDS011;1738;49.500;17.736;2022-10-31T01:32:40;68.07;;;13.00;;
3447;SDS011;1738;49.500;17.736;2022-10-31T01:35:06;101.77;;;17.37;;
3447;SDS011;1738;49.500;17.736;2022-10-31T01:37:32;86.07;;;14.80;;
3447;SDS011;1738;49.500;17.736;2022-10-31T01:39:57;56.83;;;13.37;;
3447;SDS011;1738;49.500;17.736;2022-10-31T01:42:23;50.07;;;13.70;;
3447;SDS011;1738;49.500;17.736;2022-10-31T01:44:51;62.73;;;13.90;;
3447;SDS011;1738;49.500;17.736;2022-10-31T01:47:15;59.15;;;14.38;;
3447;SDS011;1738;49.500;17.736;2022-10-31T01:49:43;73.57;;;14.47;;
3447;SDS011;1738;49.500;17.736;2022-10-31T01:52:09;83.27;;;14.43;;
3447;SDS011;1738;49.500;17.736;2022-10-31T01:54:35;86.80;;;15.90;;
3447;SDS011;1738;49.500;17.736;2022-10-31T01:56:59;73.70;;;12.63;;
3447;SDS011;1738;49.500;17.736;2022-10-31T01:59:27;57.07;;;11.97;;
3447;SDS011;1738;49.500;17.736;2022-10-31T02:01:51;82.00;;;14.20;;
3447;SDS011;1738;49.500;17.736;2022-10-31T02:04:17;85.70;;;12.70;;
3447;SDS011;1738;49.500;17.736;2022-10-31T02:06:46;51.67;;;10.67;;
3447;SDS011;1738;49.500;17.736;2022-10-31T02:09:10;64.90;;;12.30;;
3447;SDS011;1738;49.500;17.736;2022-10-31T02:11:36;128.27;;;14.47;;
3447;SDS011;1738;49.500;17.736;2022-10-31T02:14:02;81.93;;;13.53;;
3447;SDS011;1738;49.500;17.736;2022-10-31T02:16:28;71.77;;;12.83;;
3447;SDS011;1738;49.500;17.736;2022-10-31T02:18:54;71.90;;;13.30;;
3447;SDS011;1738;49.500;17.736;2022-10-31T02:23:58;56.47;;;11.93;;
3447;SDS011;1738;49.500;17.736;2022-10-31T02:26:41;88.67;;;13.77;;
3447;SDS011;1738;49.500;17.736;2022-10-31T02:29:10;26.50;;;10.30;;
3447;SDS011;1738;49.500;17.736;2022-10-31T02:31:40;59.87;;;11.10;;
3447;SDS011;1738;49.500;17.736;2022-10-31T02:34:08;73.83;;;13.10;;
3447;SDS011;1738;49.500;17.736;2022-10-31T02:36:37;51.53;;;10.47;;
3447;SDS011;1738;49.500;17.736;2022-10-31T02:39:18;83.80;;;12.20;;
3447;SDS011;1738;49.500;17.736;2022-10-31T02:41:46;48.73;;;11.20;;
3447;SDS011;1738;49.500;17.736;2022-10-31T02:44:15;54.97;;;12.40;;
3447;SDS011;1738;49.500;17.736;2022-10-31T02:46:44;28.10;;;10.83;;
3447;SDS011;1738;49.500;17.736;2022-10-31T02:49:09;58.50;;;10.50;;
3447;SDS011;1738;49.500;17.736;2022-10-31T02:51:33;38.57;;;9.33;;
3447;SDS011;1738;49.500;17.736;2022-10-31T02:53:58;67.50;;;10.77;;
3447;SDS011;1738;49.500;17.736;2022-10-31T02:56:24;52.73;;;9.70;;
3447;SDS011;1738;49.500;17.736;2022-10-31T02:58:52;32.63;;;10.10;;
3447;SDS011;1738;49.500;17.736;2022-10-31T03:01:26;52.77;;;10.97;;
3447;SDS011;1738;49.500;17.736;2022-10-31T03:03:51;45.73;;;10.77;;
3447;SDS011;1738;49.500;17.736;2022-10-31T03:06:14;49.60;;;10.10;;
3447;SDS011;1738;49.500;17.736;2022-10-31T03:08:41;43.27;;;8.60;;
3447;SDS011;1738;49.500;17.736;2022-10-31T03:11:06;30.87;;;9.37;;
3447;SDS011;1738;49.500;17.736;2022-10-31T03:13:35;52.23;;;10.50;;
3447;SDS011;1738;49.500;17.736;2022-10-31T03:16:07;73.57;;;11.67;;
3447;SDS011;1738;49.500;17.736;2022-10-31T03:18:33;77.30;;;11.30;;
3447;SDS011;1738;49.500;17.736;2022-10-31T03:21:04;44.47;;;9.38;;
3447;SDS011;1738;49.500;17.736;2022-10-31T03:23:27;44.10;;;9.53;;
3447;SDS011;1738;49.500;17.736;2022-10-31T03:25:53;31.60;;;9.43;;
3447;SDS011;1738;49.500;17.736;2022-10-31T03:28:20;52.53;;;10.67;;
3447;SDS011;1738;49.500;17.736;2022-10-31T03:30:44;71.60;;;11.63;;
3447;SDS011;1738;49.500;17.736;2022-10-31T03:33:11;59.77;;;11.80;;
3447;SDS011;1738;49.500;17.736;2022-10-31T03:35:36;52.00;;;11.30;;
3447;SDS011;1738;49.500;17.736;2022-10-31T03:38:02;56.17;;;10.13;;
3447;SDS011;1738;49.500;17.736;2022-10-31T03:40:28;24.10;;;10.40;;
3447;SDS011;1738;49.500;17.736;2022-10-31T03:42:56;31.27;;;10.87;;
3447;SDS011;1738;49.500;17.736;2022-10-31T03:45:23;37.13;;;9.03;;
3447;SDS011;1738;49.500;17.736;2022-10-31T03:47:47;47.03;;;10.80;;
3447;SDS011;1738;49.500;17.736;2022-10-31T03:50:13;44.73;;;11.13;;
3447;SDS011;1738;49.500;17.736;2022-10-31T03:52:42;33.60;;;9.60;;
3447;SDS011;1738;49.500;17.736;2022-10-31T03:55:09;28.57;;;10.43;;
3447;SDS011;1738;49.500;17.736;2022-10-31T03:57:37;37.57;;;8.90;;
3447;SDS011;1738;49.500;17.736;2022-10-31T04:00:04;47.90;;;12.30;;
3447;SDS011;1738;49.500;17.736;2022-10-31T04:02:30;57.40;;;10.18;;
3447;SDS011;1738;49.500;17.736;2022-10-31T04:04:54;75.70;;;12.07;;
3447;SDS011;1738;49.500;17.736;2022-10-31T04:07:20;68.80;;;13.63;;
3447;SDS011;1738;49.500;17.736;2022-10-31T04:09:46;48.63;;;11.60;;
3447;SDS011;1738;49.500;17.736;2022-10-31T04:12:12;72.17;;;12.43;;
3447;SDS011;1738;49.500;17.736;2022-10-31T04:14:38;36.23;;;8.80;;
3447;SDS011;1738;49.500;17.736;2022-10-31T04:17:04;45.00;;;11.60;;
3447;SDS011;1738;49.500;17.736;2022-10-31T04:19:29;46.37;;;10.40;;
3447;SDS011;1738;49.500;17.736;2022-10-31T04:21:55;31.30;;;9.47;;
3447;SDS011;1738;49.500;17.736;2022-10-31T04:24:21;36.77;;;10.33;;
3447;SDS011;1738;49.500;17.736;2022-10-31T04:26:47;50.40;;;9.30;;
3447;SDS011;1738;49.500;17.736;2022-10-31T04:29:12;55.23;;;9.83;;
3447;SDS011;1738;49.500;17.736;2022-10-31T04:31:38;57.17;;;10.67;;
3447;SDS011;1738;49.500;17.736;2022-10-31T04:34:04;100.57;;;12.10;;
3447;SDS011;1738;49.500;17.736;2022-10-31T04:36:30;104.13;;;12.17;;
3447;SDS011;1738;49.500;17.736;2022-10-31T04:38:56;30.27;;;8.90;;
3447;SDS011;1738;49.500;17.736;2022-10-31T04:41:22;34.25;;;9.15;;
3447;SDS011;1738;49.500;17.736;2022-10-31T04:43:48;41.17;;;9.02;;
3447;SDS011;1738;49.500;17.736;2022-10-31T04:46:14;24.10;;;8.27;;
3447;SDS011;1738;49.500;17.736;2022-10-31T04:48:40;36.50;;;9.63;;
3447;SDS011;1738;49.500;17.736;2022-10-31T04:51:05;18.55;;;8.32;;
3447;SDS011;1738;49.500;17.736;2022-10-31T04:53:31;44.03;;;9.40;;
3447;SDS011;1738;49.500;17.736;2022-10-31T04:55:57;38.43;;;9.47;;
3447;SDS011;1738;49.500;17.736;2022-10-31T04:58:23;44.90;;;10.73;;
3447;SDS011;1738;49.500;17.736;2022-10-31T05:00:51;55.42;;;10.95;;
3447;SDS011;1738;49.500;17.736;2022-10-31T05:03:15;52.23;;;11.60;;
3447;SDS011;1738;49.500;17.736;2022-10-31T05:05:41;63.60;;;10.73;;
3447;SDS011;1738;49.500;17.736;2022-10-31T05:08:06;35.50;;;8.43;;
3447;SDS011;1738;49.500;17.736;2022-10-31T05:10:32;31.77;;;7.73;;
3447;SDS011;1738;49.500;17.736;2022-10-31T05:12:59;42.37;;;9.10;;
3447;SDS011;1738;49.500;17.736;2022-10-31T05:15:24;45.77;;;9.70;;
3447;SDS011;1738;49.500;17.736;2022-10-31T05:17:50;47.00;;;9.07;;
3447;SDS011;1738;49.500;17.736;2022-10-31T05:20:16;45.57;;;8.97;;
3447;SDS011;1738;49.500;17.736;2022-10-31T05:22:43;64.67;;;9.77;;
3447;SDS011;1738;49.500;17.736;2022-10-31T05:25:08;45.17;;;8.10;;
3447;SDS011;1738;49.500;17.736;2022-10-31T05:27:34;48.50;;;8.60;;
3447;SDS011;1738;49.500;17.736;2022-10-31T05:30:00;61.77;;;9.90;;
3447;SDS011;1738;49.500;17.736;2022-10-31T05:32:26;43.05;;;6.60;;
3447;SDS011;1738;49.500;17.736;2022-10-31T05:34:52;28.63;;;7.33;;
3447;SDS011;1738;49.500;17.736;2022-10-31T05:37:17;42.70;;;7.30;;
3447;SDS011;1738;49.500;17.736;2022-10-31T05:39:43;34.07;;;8.20;;
3447;SDS011;1738;49.500;17.736;2022-10-31T05:42:09;63.67;;;7.73;;
3447;SDS011;1738;49.500;17.736;2022-10-31T05:44:35;46.17;;;8.80;;
3447;SDS011;1738;49.500;17.736;2022-10-31T05:47:01;62.97;;;7.93;;
3447;SDS011;1738;49.500;17.736;2022-10-31T05:49:27;37.43;;;7.90;;
3447;SDS011;1738;49.500;17.736;2022-10-31T05:51:52;83.00;;;9.80;;
3447;SDS011;1738;49.500;17.736;2022-10-31T05:54:19;21.60;;;6.90;;
3447;SDS011;1738;49.500;17.736;2022-10-31T05:56:45;67.20;;;8.73;;
3447;SDS011;1738;49.500;17.736;2022-10-31T05:59:11;56.43;;;8.13;;
3447;SDS011;1738;49.500;17.736;2022-10-31T06:01:36;57.70;;;8.00;;
3447;SDS011;1738;49.500;17.736;2022-10-31T06:04:02;44.93;;;7.43;;
3447;SDS011;1738;49.500;17.736;2022-10-31T06:06:28;51.80;;;8.40;;
3447;SDS011;1738;49.500;17.736;2022-10-31T06:08:54;45.07;;;8.00;;
3447;SDS011;1738;49.500;17.736;2022-10-31T06:11:20;65.53;;;7.93;;
3447;SDS011;1738;49.500;17.736;2022-10-31T06:13:46;65.97;;;8.73;;
3447;SDS011;1738;49.500;17.736;2022-10-31T06:16:11;66.90;;;8.80;;
3447;SDS011;1738;49.500;17.736;2022-10-31T06:18:37;60.73;;;8.97;;
3447;SDS011;1738;49.500;17.736;2022-10-31T06:21:03;78.40;;;8.50;;
3447;SDS011;1738;49.500;17.736;2022-10-31T06:23:29;59.33;;;8.03;;
3447;SDS011;1738;49.500;17.736;2022-10-31T06:25:55;45.17;;;6.80;;
3447;SDS011;1738;49.500;17.736;2022-10-31T06:28:21;32.13;;;9.43;;
3447;SDS011;1738;49.500;17.736;2022-10-31T06:30:47;50.60;;;6.90;;
3447;SDS011;1738;49.500;17.736;2022-10-31T06:33:12;35.40;;;7.27;;
3447;SDS011;1738;49.500;17.736;2022-10-31T06:35:38;39.40;;;8.97;;
3447;SDS011;1738;49.500;17.736;2022-10-31T06:38:04;50.23;;;7.80;;
3447;SDS011;1738;49.500;17.736;2022-10-31T06:40:30;42.75;;;8.27;;
3447;SDS011;1738;49.500;17.736;2022-10-31T06:42:56;30.87;;;9.07;;
3447;SDS011;1738;49.500;17.736;2022-10-31T06:45:22;30.10;;;7.57;;
3447;SDS011;1738;49.500;17.736;2022-10-31T06:47:50;49.30;;;8.10;;
3447;SDS011;1738;49.500;17.736;2022-10-31T06:50:15;39.33;;;7.57;;
3447;SDS011;1738;49.500;17.736;2022-10-31T06:52:41;42.13;;;8.00;;
3447;SDS011;1738;49.500;17.736;2022-10-31T06:55:07;28.93;;;7.67;;
3447;SDS011;1738;49.500;17.736;2022-10-31T06:57:33;52.20;;;8.70;;
3447;SDS011;1738;49.500;17.736;2022-10-31T06:59:58;34.70;;;7.63;;
3447;SDS011;1738;49.500;17.736;2022-10-31T07:02:24;49.17;;;9.93;;
3447;SDS011;1738;49.500;17.736;2022-10-31T07:04:50;28.23;;;7.77;;
3447;SDS011;1738;49.500;17.736;2022-10-31T07:07:16;30.93;;;7.80;;
3447;SDS011;1738;49.500;17.736;2022-10-31T07:09:42;27.23;;;7.23;;
3447;SDS011;1738;49.500;17.736;2022-10-31T07:12:08;24.67;;;7.37;;
3447;SDS011;1738;49.500;17.736;2022-10-31T07:14:34;16.43;;;7.27;;
3447;SDS011;1738;49.500;17.736;2022-10-31T07:16:59;15.50;;;6.80;;
3447;SDS011;1738;49.500;17.736;2022-10-31T07:19:25;32.97;;;8.97;;
3447;SDS011;1738;49.500;17.736;2022-10-31T07:21:52;29.77;;;7.67;;
3447;SDS011;1738;49.500;17.736;2022-10-31T07:24:18;51.43;;;7.83;;
3447;SDS011;1738;49.500;17.736;2022-10-31T07:26:44;21.40;;;7.30;;
3447;SDS011;1738;49.500;17.736;2022-10-31T07:29:09;71.53;;;10.80;;
3447;SDS011;1738;49.500;17.736;2022-10-31T07:31:35;53.10;;;9.10;;
3447;SDS011;1738;49.500;17.736;2022-10-31T07:34:01;47.27;;;9.57;;
3447;SDS011;1738;49.500;17.736;2022-10-31T07:36:27;60.60;;;9.20;;
3447;SDS011;1738;49.500;17.736;2022-10-31T07:38:53;52.80;;;9.23;;
3447;SDS011;1738;49.500;17.736;2022-10-31T07:41:19;43.17;;;8.43;;
3447;SDS011;1738;49.500;17.736;2022-10-31T07:43:45;42.37;;;8.80;;
3447;SDS011;1738;49.500;17.736;2022-10-31T07:46:10;66.07;;;10.53;;
3447;SDS011;1738;49.500;17.736;2022-10-31T07:48:37;51.07;;;8.50;;
3447;SDS011;1738;49.500;17.736;2022-10-31T07:51:03;182.53;;;16.47;;
3447;SDS011;1738;49.500;17.736;2022-10-31T07:53:30;147.17;;;10.70;;
3447;SDS011;1738;49.500;17.736;2022-10-31T07:55:55;49.47;;;9.43;;
3447;SDS011;1738;49.500;17.736;2022-10-31T07:58:21;69.10;;;7.80;;
3447;SDS011;1738;49.500;17.736;2022-10-31T08:00:47;51.67;;;8.37;;
3447;SDS011;1738;49.500;17.736;2022-10-31T08:03:14;25.15;;;6.53;;
3447;SDS011;1738;49.500;17.736;2022-10-31T08:05:39;17.57;;;6.53;;
3447;SDS011;1738;49.500;17.736;2022-10-31T08:08:05;50.60;;;7.93;;
3447;SDS011;1738;49.500;17.736;2022-10-31T08:10:31;36.08;;;7.75;;
3447;SDS011;1738;49.500;17.736;2022-10-31T08:12:58;35.43;;;7.13;;
3447;SDS011;1738;49.500;17.736;2022-10-31T08:15:23;30.30;;;7.73;;
3447;SDS011;1738;49.500;17.736;2022-10-31T08:17:49;42.03;;;6.93;;
3447;SDS011;1738;49.500;17.736;2022-10-31T08:20:15;39.27;;;7.80;;
3447;SDS011;1738;49.500;17.736;2022-10-31T08:22:40;66.23;;;10.30;;
3447;SDS011;1738;49.500;17.736;2022-10-31T08:25:07;48.50;;;8.47;;
3447;SDS011;1738;49.500;17.736;2022-10-31T08:27:33;25.40;;;7.60;;
3447;SDS011;1738;49.500;17.736;2022-10-31T08:29:59;28.33;;;7.67;;
3447;SDS011;1738;49.500;17.736;2022-10-31T08:32:25;26.57;;;6.30;;
3447;SDS011;1738;49.500;17.736;2022-10-31T08:34:51;10.70;;;5.37;;
3447;SDS011;1738;49.500;17.736;2022-10-31T08:37:17;93.53;;;9.33;;
3447;SDS011;1738;49.500;17.736;2022-10-31T08:39:42;46.93;;;7.20;;
3447;SDS011;1738;49.500;17.736;2022-10-31T08:42:08;20.37;;;6.17;;
3447;SDS011;1738;49.500;17.736;2022-10-31T08:44:34;39.50;;;6.73;;
3447;SDS011;1738;49.500;17.736;2022-10-31T08:47:00;42.80;;;5.93;;
3447;SDS011;1738;49.500;17.736;2022-10-31T08:49:26;28.23;;;6.67;;
3447;SDS011;1738;49.500;17.736;2022-10-31T08:51:52;52.27;;;7.00;;
3447;SDS011;1738;49.500;17.736;2022-10-31T08:54:17;35.63;;;6.20;;
3447;SDS011;1738;49.500;17.736;2022-10-31T08:56:43;27.07;;;5.87;;
3447;SDS011;1738;49.500;17.736;2022-10-31T08:59:09;33.93;;;7.80;;
3447;SDS011;1738;49.500;17.736;2022-10-31T09:01:35;15.63;;;5.00;;
3447;SDS011;1738;49.500;17.736;2022-10-31T09:04:01;33.37;;;6.97;;
3447;SDS011;1738;49.500;17.736;2022-10-31T09:06:27;32.73;;;6.00;;
3447;SDS011;1738;49.500;17.736;2022-10-31T09:08:52;51.03;;;7.70;;
3447;SDS011;1738;49.500;17.736;2022-10-31T09:11:18;41.77;;;6.90;;
3447;SDS011;1738;49.500;17.736;2022-10-31T09:13:44;10.60;;;5.90;;
3447;SDS011;1738;49.500;17.736;2022-10-31T09:16:10;20.77;;;6.10;;
3447;SDS011;1738;49.500;17.736;2022-10-31T09:18:36;17.27;;;5.60;;
3447;SDS011;1738;49.500;17.736;2022-10-31T09:21:02;30.53;;;5.87;;
3447;SDS011;1738;49.500;17.736;2022-10-31T09:23:28;11.43;;;4.47;;
3447;SDS011;1738;49.500;17.736;2022-10-31T09:25:54;8.43;;;5.30;;
3447;SDS011;1738;49.500;17.736;2022-10-31T09:28:21;6.40;;;5.20;;
3447;SDS011;1738;49.500;17.736;2022-10-31T09:30:46;10.93;;;5.40;;
3447;SDS011;1738;49.500;17.736;2022-10-31T09:33:11;8.63;;;5.70;;
3447;SDS011;1738;49.500;17.736;2022-10-31T09:35:37;17.80;;;4.83;;
3447;SDS011;1738;49.500;17.736;2022-10-31T09:38:05;8.50;;;5.67;;
3447;SDS011;1738;49.500;17.736;2022-10-31T09:40:34;18.43;;;5.77;;
3447;SDS011;1738;49.500;17.736;2022-10-31T09:43:03;9.67;;;5.57;;
3447;SDS011;1738;49.500;17.736;2022-10-31T09:45:34;9.13;;;6.67;;
3447;SDS011;1738;49.500;17.736;2022-10-31T09:48:06;8.17;;;5.67;;
3447;SDS011;1738;49.500;17.736;2022-10-31T09:50:37;9.03;;;5.47;;
3447;SDS011;1738;49.500;17.736;2022-10-31T09:53:02;8.27;;;5.80;;
3447;SDS011;1738;49.500;17.736;2022-10-31T09:55:34;10.93;;;5.50;;
3447;SDS011;1738;49.500;17.736;2022-10-31T09:57:57;13.07;;;6.50;;
3447;SDS011;1738;49.500;17.736;2022-10-31T10:00:22;7.80;;;5.77;;
3447;SDS011;1738;49.500;17.736;2022-10-31T10:02:53;8.70;;;6.33;;
3447;SDS011;1738;49.500;17.736;2022-10-31T10:05:19;10.13;;;6.33;;
3447;SDS011;1738;49.500;17.736;2022-10-31T10:07:48;22.48;;;6.80;;
3447;SDS011;1738;49.500;17.736;2022-10-31T10:10:17;10.67;;;5.60;;
3447;SDS011;1738;49.500;17.736;2022-10-31T10:12:46;12.30;;;5.97;;
3447;SDS011;1738;49.500;17.736;2022-10-31T10:17:42;9.30;;;5.40;;
3447;SDS011;1738;49.500;17.736;2022-10-31T10:22:43;9.80;;;5.30;;
3447;SDS011;1738;49.500;17.736;2022-10-31T10:25:14;13.03;;;7.07;;
3447;SDS011;1738;49.500;17.736;2022-10-31T10:27:52;18.97;;;7.30;;
3447;SDS011;1738;49.500;17.736;2022-10-31T10:30:19;10.17;;;6.40;;
3447;SDS011;1738;49.500;17.736;2022-10-31T10:32:59;20.87;;;7.17;;
3447;SDS011;1738;49.500;17.736;2022-10-31T10:35:33;14.10;;;6.00;;
3447;SDS011;1738;49.500;17.736;2022-10-31T10:40:38;16.40;;;7.60;;
3447;SDS011;1738;49.500;17.736;2022-10-31T10:43:21;28.93;;;6.90;;
3447;SDS011;1738;49.500;17.736;2022-10-31T10:45:50;9.33;;;6.00;;
3447;SDS011;1738;49.500;17.736;2022-10-31T10:48:25;14.27;;;7.43;;
3447;SDS011;1738;49.500;17.736;2022-10-31T10:50:48;8.93;;;5.40;;
3447;SDS011;1738;49.500;17.736;2022-10-31T10:53:18;12.57;;;7.25;;
3447;SDS011;1738;49.500;17.736;2022-10-31T10:55:44;11.70;;;7.37;;
3447;SDS011;1738;49.500;17.736;2022-10-31T10:58:09;12.07;;;8.53;;
3447;SDS011;1738;49.500;17.736;2022-10-31T11:00:36;9.93;;;7.93;;
3447;SDS011;1738;49.500;17.736;2022-10-31T11:03:00;14.87;;;9.10;;
3447;SDS011;1738;49.500;17.736;2022-10-31T11:05:30;12.07;;;8.27;;
3447;SDS011;1738;49.500;17.736;2022-10-31T11:07:53;12.67;;;7.90;;
3447;SDS011;1738;49.500;17.736;2022-10-31T11:10:19;14.27;;;7.47;;
3447;SDS011;1738;49.500;17.736;2022-10-31T11:12:57;15.30;;;8.53;;
3447;SDS011;1738;49.500;17.736;2022-10-31T11:15:19;15.17;;;9.87;;
3447;SDS011;1738;49.500;17.736;2022-10-31T11:17:48;12.33;;;8.50;;
3447;SDS011;1738;49.500;17.736;2022-10-31T11:20:29;11.80;;;9.40;;
3447;SDS011;1738;49.500;17.736;2022-10-31T11:23:00;11.43;;;8.33;;
3447;SDS011;1738;49.500;17.736;2022-10-31T11:25:21;22.30;;;11.00;;
3447;SDS011;1738;49.500;17.736;2022-10-31T11:27:46;13.20;;;9.47;;
3447;SDS011;1738;49.500;17.736;2022-10-31T11:30:12;21.83;;;10.40;;
3447;SDS011;1738;49.500;17.736;2022-10-31T11:32:40;18.53;;;10.43;;
3447;SDS011;1738;49.500;17.736;2022-10-31T11:35:09;14.53;;;8.87;;
3447;SDS011;1738;49.500;17.736;2022-10-31T11:37:32;13.60;;;9.10;;
3447;SDS011;1738;49.500;17.736;2022-10-31T11:39:57;17.93;;;9.47;;
3447;SDS011;1738;49.500;17.736;2022-10-31T11:42:30;19.93;;;8.60;;
3447;SDS011;1738;49.500;17.736;2022-10-31T11:44:58;16.63;;;9.27;;
3447;SDS011;1738;49.500;17.736;2022-10-31T11:47:25;13.93;;;9.23;;
3447;SDS011;1738;49.500;17.736;2022-10-31T11:49:49;14.83;;;10.60;;
3447;SDS011;1738;49.500;17.736;2022-10-31T11:52:17;19.75;;;11.55;;
3447;SDS011;1738;49.500;17.736;2022-10-31T11:54:46;17.87;;;11.98;;
3447;SDS011;1738;49.500;17.736;2022-10-31T11:59:50;19.43;;;9.37;;
3447;SDS011;1738;49.500;17.736;2022-10-31T12:02:14;19.27;;;10.23;;
3447;SDS011;1738;49.500;17.736;2022-10-31T12:04:42;23.23;;;10.67;;
3447;SDS011;1738;49.500;17.736;2022-10-31T12:07:07;34.70;;;11.97;;
3447;SDS011;1738;49.500;17.736;2022-10-31T12:09:33;21.10;;;10.50;;
3447;SDS011;1738;49.500;17.736;2022-10-31T12:12:05;31.27;;;11.50;;
3447;SDS011;1738;49.500;17.736;2022-10-31T12:14:51;24.90;;;12.10;;
3447;SDS011;1738;49.500;17.736;2022-10-31T12:17:15;44.73;;;12.00;;
3447;SDS011;1738;49.500;17.736;2022-10-31T12:19:45;19.43;;;9.37;;
3447;SDS011;1738;49.500;17.736;2022-10-31T12:22:14;30.63;;;9.57;;
3447;SDS011;1738;49.500;17.736;2022-10-31T12:27:16;19.10;;;11.80;;
3447;SDS011;1738;49.500;17.736;2022-10-31T12:29:44;23.63;;;11.10;;
3447;SDS011;1738;49.500;17.736;2022-10-31T12:40:04;18.23;;;11.83;;
3447;SDS011;1738;49.500;17.736;2022-10-31T12:45:13;27.93;;;12.40;;
3447;SDS011;1738;49.500;17.736;2022-10-31T12:47:42;31.20;;;13.30;;
3447;SDS011;1738;49.500;17.736;2022-10-31T12:52:39;28.00;;;12.00;;
3447;SDS011;1738;49.500;17.736;2022-10-31T12:55:06;25.60;;;13.60;;
3447;SDS011;1738;49.500;17.736;2022-10-31T12:57:32;41.23;;;13.93;;
3447;SDS011;1738;49.500;17.736;2022-10-31T13:00:15;35.15;;;12.40;;
3447;SDS011;1738;49.500;17.736;2022-10-31T13:02:46;28.90;;;12.27;;
3447;SDS011;1738;49.500;17.736;2022-10-31T13:05:41;55.90;;;13.93;;
3447;SDS011;1738;49.500;17.736;2022-10-31T13:10:24;31.63;;;12.40;;
3447;SDS011;1738;49.500;17.736;2022-10-31T13:12:49;47.67;;;15.60;;
3447;SDS011;1738;49.500;17.736;2022-10-31T13:15:18;31.93;;;11.40;;
3447;SDS011;1738;49.500;17.736;2022-10-31T13:17:43;69.40;;;15.83;;
3447;SDS011;1738;49.500;17.736;2022-10-31T13:20:15;25.93;;;13.60;;
3447;SDS011;1738;49.500;17.736;2022-10-31T13:22:40;26.07;;;13.33;;
3447;SDS011;1738;49.500;17.736;2022-10-31T13:25:13;29.07;;;14.50;;
3447;SDS011;1738;49.500;17.736;2022-10-31T13:30:13;32.87;;;15.27;;
3447;SDS011;1738;49.500;17.736;2022-10-31T13:32:39;46.07;;;15.80;;
3447;SDS011;1738;49.500;17.736;2022-10-31T13:35:03;56.73;;;16.37;;
3447;SDS011;1738;49.500;17.736;2022-10-31T13:37:35;35.13;;;14.43;;
3447;SDS011;1738;49.500;17.736;2022-10-31T13:40:37;38.67;;;16.03;;
3447;SDS011;1738;49.500;17.736;2022-10-31T13:42:52;39.57;;;17.93;;
3447;SDS011;1738;49.500;17.736;2022-10-31T13:45:18;30.40;;;15.07;;
3447;SDS011;1738;49.500;17.736;2022-10-31T13:47:43;37.07;;;16.37;;
3447;SDS011;1738;49.500;17.736;2022-10-31T13:52:41;68.60;;;17.60;;
3447;SDS011;1738;49.500;17.736;2022-10-31T13:55:07;37.23;;;15.50;;
3447;SDS011;1738;49.500;17.736;2022-10-31T13:57:37;33.80;;;15.90;;
3447;SDS011;1738;49.500;17.736;2022-10-31T14:00:03;44.60;;;16.77;;
3447;SDS011;1738;49.500;17.736;2022-10-31T14:02:27;61.50;;;19.10;;
3447;SDS011;1738;49.500;17.736;2022-10-31T14:05:00;145.77;;;20.40;;
3447;SDS011;1738;49.500;17.736;2022-10-31T14:07:27;55.97;;;19.20;;
3447;SDS011;1738;49.500;17.736;2022-10-31T14:10:20;50.20;;;16.50;;
3447;SDS011;1738;49.500;17.736;2022-10-31T14:12:39;50.70;;;19.43;;
3447;SDS011;1738;49.500;17.736;2022-10-31T14:15:13;33.73;;;16.53;;
3447;SDS011;1738;49.500;17.736;2022-10-31T14:17:39;30.57;;;17.70;;
3447;SDS011;1738;49.500;17.736;2022-10-31T14:20:31;39.13;;;18.53;;
3447;SDS011;1738;49.500;17.736;2022-10-31T14:22:50;43.23;;;19.10;;
3447;SDS011;1738;49.500;17.736;2022-10-31T14:25:27;48.00;;;19.33;;
3447;SDS011;1738;49.500;17.736;2022-10-31T14:27:52;36.53;;;17.77;;
3447;SDS011;1738;49.500;17.736;2022-10-31T14:30:19;106.27;;;19.60;;
3447;SDS011;1738;49.500;17.736;2022-10-31T14:32:44;30.23;;;16.70;;
3447;SDS011;1738;49.500;17.736;2022-10-31T14:35:13;106.57;;;20.42;;
3447;SDS011;1738;49.500;17.736;2022-10-31T14:37:41;203.70;;;26.33;;
3447;SDS011;1738;49.500;17.736;2022-10-31T14:45:24;52.20;;;19.20;;
3447;SDS011;1738;49.500;17.736;2022-10-31T14:47:53;107.57;;;21.73;;
3447;SDS011;1738;49.500;17.736;2022-10-31T14:50:21;103.73;;;21.90;;
3447;SDS011;1738;49.500;17.736;2022-10-31T14:52:47;51.03;;;17.83;;
3447;SDS011;1738;49.500;17.736;2022-10-31T14:55:11;53.50;;;16.75;;
3447;SDS011;1738;49.500;17.736;2022-10-31T14:57:37;84.60;;;18.80;;
3447;SDS011;1738;49.500;17.736;2022-10-31T15:00:05;107.17;;;21.57;;
3447;SDS011;1738;49.500;17.736;2022-10-31T15:02:39;95.67;;;21.63;;
3447;SDS011;1738;49.500;17.736;2022-10-31T15:05:07;317.48;;;27.98;;
3447;SDS011;1738;49.500;17.736;2022-10-31T15:07:32;148.57;;;22.37;;
3447;SDS011;1738;49.500;17.736;2022-10-31T15:09:59;157.00;;;24.13;;
3447;SDS011;1738;49.500;17.736;2022-10-31T15:12:26;169.50;;;24.03;;
3447;SDS011;1738;49.500;17.736;2022-10-31T15:14:51;157.23;;;24.05;;
3447;SDS011;1738;49.500;17.736;2022-10-31T15:17:17;164.77;;;23.67;;
3447;SDS011;1738;49.500;17.736;2022-10-31T15:19:43;184.40;;;28.20;;